Terminal Aerodrome Forecast
Issued by NWS Louisville, KY

Home | Current Version | Previous Version | Text Only | Print | Product List | Glossary On
Versions: 1 2 3 4 5 6 7 8 9 10 11 12 13 14 15 16 17 18 19 20 21 22 23 24 25 26 27
684
FTUS43 KLMK 171124
TAFSDF
TAF
KSDF 171124Z 1712/1818 22011G20KT P6SM VCSH OVC015
     FM171400 25011KT P6SM BKN035
     FM172200 28010KT P6SM OVC024
     FM180300 28010KT P6SM OVC013=

USA.gov is the U.S. government's official web portal to all federal, state and local government web resources and services.